Time;durP1;ratioP1;P1;durP2;ratioP2;P2;SDS_P1;SDS_P2;PMS_P1;PMS_P2;Temp;Humidity;BMP_temperature;BMP_pressure;BME280_temperature;BME280_humidity;BME280_pressure;Samples;Min_cycle;Max_cycle;Signal;HPM_P1;HPM_P2
2022/04/28 00:01:03;;;;;;;8.63;3.38;;;5.50;99.90;;;;;;5073081;28;20403;-75
2022/04/28 00:03:29;;;;;;;15.15;3.72;;;5.50;99.90;;;;;;5073544;28;20040;-75
2022/04/28 00:05:55;;;;;;;9.52;3.97;;;5.50;99.90;;;;;;5073776;28;20392;-75
2022/04/28 00:08:21;;;;;;;8.07;3.40;;;5.50;99.90;;;;;;5074100;28;20028;-75
2022/04/28 00:10:47;;;;;;;11.48;3.30;;;5.50;99.90;;;;;;5073755;28;20040;-75
2022/04/28 00:13:13;;;;;;;9.45;3.25;;;5.50;99.90;;;;;;5074179;28;20031;-75
2022/04/28 00:15:41;;;;;;;10.32;3.83;;;5.40;99.90;;;;;;5073772;28;20028;-75
2022/04/28 00:18:07;;;;;;;16.45;4.25;;;5.40;99.90;;;;;;5057263;28;20048;-75
2022/04/28 00:20:32;;;;;;;15.48;4.40;;;5.30;99.90;;;;;;5073282;28;20087;-75
2022/04/28 00:22:58;;;;;;;9.00;3.53;;;5.30;99.90;;;;;;5073459;28;20020;-75
2022/04/28 00:25:27;;;;;;;8.85;2.95;;;5.30;99.90;;;;;;5073337;28;20064;-75
2022/04/28 00:27:54;;;;;;;11.85;3.30;;;5.20;99.90;;;;;;5073408;28;20020;-75
2022/04/28 00:30:19;;;;;;;12.00;4.13;;;5.20;99.90;;;;;;5073692;28;20058;-75
2022/04/28 00:32:45;;;;;;;10.55;4.05;;;5.20;99.90;;;;;;5058591;28;20469;-75
2022/04/28 00:35:10;;;;;;;9.05;4.07;;;5.20;99.90;;;;;;5053348;28;20032;-75
2022/04/28 00:37:36;;;;;;;10.25;4.00;;;5.10;99.90;;;;;;5053811;28;20032;-75
2022/04/28 00:40:01;;;;;;;9.70;3.85;;;5.10;99.90;;;;;;5055031;28;20032;-75
2022/04/28 00:42:27;;;;;;;14.15;4.57;;;5.10;99.90;;;;;;5073418;28;20056;-75
2022/04/28 00:44:53;;;;;;;14.90;4.43;;;5.00;99.90;;;;;;5047957;28;20094;-75
2022/04/28 00:47:19;;;;;;;14.82;4.22;;;5.00;99.90;;;;;;5073476;28;20412;-75
2022/04/28 00:52:32;;;;;;;15.13;5.07;;;5.00;99.90;;;;;;5071636;28;20448;-75
2022/04/28 00:55:00;;;;;;;18.98;5.47;;;5.00;99.90;;;;;;5072860;28;20160;-75
2022/04/28 00:57:28;;;;;;;12.32;4.60;;;5.00;99.90;;;;;;5073150;28;20021;-75
2022/04/28 00:59:53;;;;;;;11.88;4.97;;;5.00;99.90;;;;;;5071937;28;20032;-75
2022/04/28 01:02:19;;;;;;;8.57;4.05;;;5.00;99.90;;;;;;5072524;28;20029;-75
2022/04/28 01:04:46;;;;;;;14.02;4.45;;;5.00;99.90;;;;;;5072933;28;20520;-75
2022/04/28 01:07:12;;;;;;;11.43;4.50;;;5.00;99.90;;;;;;5072971;28;20048;-75
2022/04/28 01:09:40;;;;;;;11.77;4.93;;;4.90;99.90;;;;;;5072757;28;20055;-75
2022/04/28 01:12:08;;;;;;;10.23;4.75;;;4.90;99.90;;;;;;5072825;28;20037;-75
2022/04/28 01:14:34;;;;;;;21.90;5.72;;;4.80;99.90;;;;;;5071963;28;20028;-75
2022/04/28 01:17:00;;;;;;;13.88;5.03;;;4.80;99.90;;;;;;5072076;28;20381;-75
2022/04/28 01:19:26;;;;;;;17.58;4.70;;;4.70;99.90;;;;;;5072120;28;20507;-74
2022/04/28 01:21:52;;;;;;;10.88;4.75;;;4.70;99.90;;;;;;5072479;28;20036;-75
2022/04/28 01:24:18;;;;;;;15.93;5.18;;;4.60;99.90;;;;;;5072164;28;20115;-75
2022/04/28 01:26:44;;;;;;;13.27;5.57;;;4.60;99.90;;;;;;5072283;28;20067;-75
2022/04/28 01:29:10;;;;;;;11.05;5.15;;;4.50;99.90;;;;;;5065653;28;20029;-74
2022/04/28 01:31:35;;;;;;;15.70;5.15;;;4.50;99.90;;;;;;5052609;28;20028;-75
2022/04/28 01:34:03;;;;;;;14.05;4.78;;;4.50;99.90;;;;;;5060033;28;20373;-75
2022/04/28 01:36:28;;;;;;;12.40;5.40;;;4.40;99.90;;;;;;5069975;28;20033;-75
2022/04/28 01:38:54;;;;;;;16.25;5.28;;;4.40;99.90;;;;;;5072311;28;20020;-75
2022/04/28 01:41:19;;;;;;;11.65;5.88;;;4.40;99.90;;;;;;5072349;28;20033;-75
2022/04/28 01:43:45;;;;;;;16.92;6.03;;;4.40;99.90;;;;;;5071062;28;20041;-75
2022/04/28 01:46:12;;;;;;;11.63;4.85;;;4.40;99.90;;;;;;5072323;28;20083;-75
2022/04/28 01:48:37;;;;;;;19.95;6.22;;;4.40;99.90;;;;;;5072071;28;20024;-75
2022/04/28 01:56:31;;;;;;;15.95;6.18;;;4.40;99.90;;;;;;5072313;28;20085;-75
2022/04/28 01:58:56;;;;;;;12.88;6.50;;;4.40;99.90;;;;;;5071000;28;20036;-75
2022/04/28 02:01:23;;;;;;;16.90;5.85;;;4.30;99.90;;;;;;5071957;28;20381;-75
2022/04/28 02:03:48;;;;;;;21.85;6.25;;;4.30;99.90;;;;;;5071564;28;20024;-75
2022/04/28 02:06:14;;;;;;;12.23;6.05;;;4.20;99.90;;;;;;5071697;28;20037;-75
2022/04/28 02:08:39;;;;;;;13.55;7.22;;;4.20;99.90;;;;;;5071410;28;20414;-75
2022/04/28 02:11:06;;;;;;;16.67;5.78;;;4.20;99.90;;;;;;5071465;28;20150;-75
2022/04/28 02:13:31;;;;;;;16.42;6.22;;;4.10;99.90;;;;;;5066166;28;20104;-75
2022/04/28 02:15:59;;;;;;;21.73;6.72;;;4.10;99.90;;;;;;5051340;28;20501;-75
2022/04/28 02:18:25;;;;;;;17.02;7.80;;;4.10;99.90;;;;;;5060774;28;20027;-74
2022/04/28 02:20:50;;;;;;;20.65;7.03;;;4.20;99.90;;;;;;5070716;28;20049;-75
2022/04/28 02:23:16;;;;;;;21.52;7.28;;;4.20;99.90;;;;;;5070834;28;20025;-74
2022/04/28 02:25:41;;;;;;;14.27;6.43;;;4.10;99.90;;;;;;5071145;28;20028;-75
2022/04/28 02:28:07;;;;;;;13.88;7.10;;;4.10;99.90;;;;;;5070623;28;20037;-75
2022/04/28 02:30:32;;;;;;;13.43;6.10;;;4.10;99.90;;;;;;5071777;28;20047;-75
2022/04/28 02:33:10;;;;;;;12.45;6.07;;;4.10;99.90;;;;;;5071013;28;20028;-75
2022/04/28 02:35:40;;;;;;;21.55;6.50;;;4.00;99.90;;;;;;5071749;28;20107;-74
2022/04/28 02:38:06;;;;;;;15.63;6.50;;;4.00;99.90;;;;;;5071570;28;20031;-75
2022/04/28 02:40:33;;;;;;;26.35;8.82;;;3.90;99.90;;;;;;5071074;28;20074;-75
2022/04/28 02:42:59;;;;;;;21.35;8.35;;;3.80;99.90;;;;;;5068547;28;20029;-75
2022/04/28 02:45:25;;;;;;;13.38;5.88;;;3.80;99.90;;;;;;5071553;28;20469;-75
2022/04/28 02:47:51;;;;;;;19.45;7.35;;;3.70;99.90;;;;;;5070918;28;20099;-75
2022/04/28 02:50:16;;;;;;;18.42;7.78;;;3.80;99.90;;;;;;5071326;28;20381;-75
2022/04/28 02:52:42;;;;;;;16.92;7.45;;;3.70;99.90;;;;;;5070791;28;20365;-75
2022/04/28 02:55:08;;;;;;;22.35;7.78;;;3.80;99.90;;;;;;5070769;28;20040;-75
2022/04/28 02:57:34;;;;;;;14.52;7.63;;;3.80;99.90;;;;;;5070425;28;20401;-75
2022/04/28 03:00:02;;;;;;;14.07;6.75;;;3.70;99.90;;;;;;5070945;28;20029;-75
2022/04/28 03:02:27;;;;;;;13.10;6.97;;;3.70;99.90;;;;;;5071286;28;20510;-75
2022/04/28 03:04:53;;;;;;;19.88;7.95;;;3.70;99.90;;;;;;5053029;28;20441;-75
2022/04/28 03:12:47;;;;;;;16.95;6.85;;;3.70;99.90;;;;;;5055906;28;20036;-75
2022/04/28 03:15:13;;;;;;;20.73;8.43;;;3.70;99.90;;;;;;5070987;28;20025;-75
2022/04/28 03:17:38;;;;;;;18.00;8.15;;;3.70;99.90;;;;;;5070820;28;20029;-75
2022/04/28 03:20:05;;;;;;;16.65;8.27;;;3.70;99.90;;;;;;5070854;28;20072;-75
2022/04/28 03:22:31;;;;;;;19.67;7.70;;;3.70;99.90;;;;;;5070635;28;20471;-75
2022/04/28 03:24:56;;;;;;;18.75;8.30;;;3.60;99.90;;;;;;5070591;28;20130;-75
2022/04/28 03:27:22;;;;;;;19.33;8.43;;;3.60;99.90;;;;;;5070047;28;20033;-75
2022/04/28 03:29:47;;;;;;;16.20;7.25;;;3.70;99.90;;;;;;5070527;28;20028;-75
2022/04/28 03:32:13;;;;;;;18.58;8.50;;;3.60;99.90;;;;;;5071338;28;20017;-75
2022/04/28 03:34:39;;;;;;;16.38;8.23;;;3.60;99.90;;;;;;5073024;28;20021;-75
2022/04/28 03:37:04;;;;;;;18.88;8.38;;;3.70;99.90;;;;;;5074309;28;20500;-75
2022/04/28 03:39:30;;;;;;;23.42;9.85;;;3.70;99.90;;;;;;5074857;28;20048;-75
2022/04/28 03:41:56;;;;;;;23.60;10.20;;;3.70;99.90;;;;;;5072941;28;20037;-75
2022/04/28 03:44:21;;;;;;;20.02;8.25;;;3.70;99.90;;;;;;5074446;28;20166;-75
2022/04/28 03:46:49;;;;;;;19.35;9.63;;;3.70;99.90;;;;;;5055910;28;20032;-75
2022/04/28 03:49:15;;;;;;;13.80;7.20;;;3.70;99.90;;;;;;5074346;28;20060;-75
2022/04/28 03:51:40;;;;;;;22.48;9.38;;;3.70;99.90;;;;;;5073905;28;20059;-75
2022/04/28 03:54:06;;;;;;;16.60;7.82;;;3.60;99.90;;;;;;5073827;28;20547;-75
2022/04/28 03:56:33;;;;;;;20.38;9.27;;;3.70;99.90;;;;;;5074604;28;20468;-75
2022/04/28 03:59:00;;;;;;;16.38;8.57;;;3.70;99.90;;;;;;5074049;28;20031;-75
2022/04/28 04:01:26;;;;;;;19.25;9.13;;;3.70;99.90;;;;;;5074149;28;20067;-75
2022/04/28 04:03:52;;;;;;;23.67;8.77;;;3.70;99.90;;;;;;5074048;28;20028;-75
2022/04/28 04:06:17;;;;;;;23.00;9.30;;;3.70;99.90;;;;;;5073869;28;20033;-75
2022/04/28 04:08:43;;;;;;;19.40;8.82;;;3.60;99.90;;;;;;5073136;28;20035;-75
2022/04/28 04:11:08;;;;;;;18.15;8.82;;;3.60;99.90;;;;;;5073498;28;20037;-75
2022/04/28 04:13:34;;;;;;;20.45;7.82;;;3.60;99.90;;;;;;5074038;28;20472;-75
2022/04/28 04:16:00;;;;;;;17.80;8.25;;;3.50;99.90;;;;;;5073621;28;20035;-75
2022/04/28 04:18:25;;;;;;;21.95;8.68;;;3.50;99.90;;;;;;5073724;28;20063;-75
2022/04/28 04:20:51;;;;;;;19.23;9.15;;;3.50;99.90;;;;;;5072809;28;20041;-75
2022/04/28 04:23:17;;;;;;;24.70;9.27;;;3.40;99.90;;;;;;5073194;28;20036;-75
2022/04/28 04:25:43;;;;;;;25.77;9.20;;;3.40;99.90;;;;;;5073066;28;20456;-75
2022/04/28 04:28:08;;;;;;;19.92;9.27;;;3.40;99.90;;;;;;5073743;28;20023;-75
2022/04/28 04:33:18;;;;;;;23.95;9.20;;;3.40;99.90;;;;;;5073671;28;20115;-75
2022/04/28 04:35:43;;;;;;;21.52;9.63;;;3.40;99.90;;;;;;5072856;28;20103;-75
2022/04/28 04:38:09;;;;;;;17.92;8.75;;;3.40;99.90;;;;;;5069006;28;20048;-75
2022/04/28 04:40:34;;;;;;;20.92;7.60;;;3.40;99.90;;;;;;5073291;28;20028;-75
2022/04/28 04:43:00;;;;;;;22.90;8.95;;;3.40;99.90;;;;;;5072930;28;20032;-75
2022/04/28 04:45:26;;;;;;;19.00;8.82;;;3.40;99.90;;;;;;5072738;28;20036;-75
2022/04/28 04:47:51;;;;;;;29.55;9.82;;;3.40;99.90;;;;;;5073045;28;20032;-75
2022/04/28 04:50:17;;;;;;;24.58;9.85;;;3.40;99.90;;;;;;5073026;28;20029;-75
2022/04/28 04:52:42;;;;;;;22.70;9.75;;;3.40;99.90;;;;;;5072247;28;20482;-75
2022/04/28 04:55:08;;;;;;;22.63;9.20;;;3.40;99.90;;;;;;5073250;28;20032;-75
2022/04/28 04:57:36;;;;;;;21.70;10.98;;;3.40;99.90;;;;;;5073035;28;20017;-75
2022/04/28 05:00:04;;;;;;;18.10;9.77;;;3.50;99.90;;;;;;5072869;28;20476;-75
2022/04/28 05:02:29;;;;;;;21.00;8.93;;;3.60;99.90;;;;;;5072972;28;20515;-75
2022/04/28 05:04:55;;;;;;;25.83;10.48;;;3.60;99.90;;;;;;5071961;28;20029;-75
2022/04/28 05:07:20;;;;;;;20.27;9.60;;;3.70;99.90;;;;;;5072889;28;20092;-75
2022/04/28 05:09:46;;;;;;;17.83;8.68;;;3.80;99.90;;;;;;5072638;28;20036;-75
2022/04/28 05:12:11;;;;;;;16.48;8.75;;;3.90;99.90;;;;;;5073213;28;20024;-75
2022/04/28 05:14:37;;;;;;;24.30;10.55;;;4.00;99.90;;;;;;5072507;28;20025;-75
2022/04/28 05:17:03;;;;;;;19.60;9.95;;;4.20;99.90;;;;;;5072578;28;20472;-75
2022/04/28 05:19:28;;;;;;;20.23;9.20;;;4.30;99.90;;;;;;5072047;28;20108;-75
2022/04/28 05:21:57;;;;;;;14.10;7.43;;;4.40;99.90;;;;;;5060558;28;20116;-75
2022/04/28 05:24:23;;;;;;;18.38;9.70;;;4.50;99.90;;;;;;5052694;28;20501;-75
2022/04/28 05:26:48;;;;;;;22.65;8.85;;;4.60;99.90;;;;;;5052173;28;20071;-75
2022/04/28 05:29:14;;;;;;;24.20;10.70;;;4.70;99.90;;;;;;5068747;28;20052;-75
2022/04/28 05:31:39;;;;;;;16.23;8.60;;;4.80;99.90;;;;;;5063888;28;20059;-75
2022/04/28 05:34:05;;;;;;;19.23;9.43;;;4.90;99.90;;;;;;5072215;28;20037;-75
2022/04/28 05:36:31;;;;;;;19.40;8.75;;;4.90;99.90;;;;;;5070665;28;20392;-75
2022/04/28 05:39:00;;;;;;;25.40;10.73;;;5.00;99.90;;;;;;5071991;28;20385;-75
2022/04/28 05:41:27;;;;;;;26.25;11.40;;;5.10;99.90;;;;;;5072548;28;20020;-75
2022/04/28 05:46:38;;;;;;;25.98;9.98;;;5.30;99.90;;;;;;5072478;28;20044;-75
2022/04/28 05:49:07;;;;;;;21.17;8.60;;;5.50;99.90;;;;;;5071446;28;20020;-75
2022/04/28 05:51:33;;;;;;;15.90;8.93;;;5.60;99.90;;;;;;5072239;28;20389;-75
2022/04/28 05:53:58;;;;;;;25.08;9.73;;;5.80;99.90;;;;;;5057453;28;20054;-75
2022/04/28 05:56:24;;;;;;;17.80;9.65;;;6.00;99.90;;;;;;5052046;28;20028;-75
2022/04/28 05:58:51;;;;;;;28.60;10.00;;;6.10;99.90;;;;;;5064090;28;20069;-76
2022/04/28 06:01:17;;;;;;;13.68;8.70;;;6.20;99.90;;;;;;5071744;28;20559;-75
2022/04/28 06:03:43;;;;;;;21.30;10.25;;;6.40;99.90;;;;;;5070997;28;20082;-75
2022/04/28 06:06:09;;;;;;;18.80;8.55;;;6.50;99.90;;;;;;5072048;28;20036;-75
2022/04/28 06:08:35;;;;;;;17.63;9.77;;;6.60;99.90;;;;;;5071730;28;20090;-75
2022/04/28 06:11:01;;;;;;;22.30;9.32;;;6.80;99.90;;;;;;5071381;28;20120;-75
2022/04/28 06:13:27;;;;;;;15.43;8.32;;;6.90;99.90;;;;;;5071567;28;20031;-75
2022/04/28 06:15:52;;;;;;;20.20;9.23;;;7.00;99.90;;;;;;5071536;28;20380;-75
2022/04/28 06:18:18;;;;;;;18.77;9.30;;;7.10;99.90;;;;;;5070809;28;20028;-75
2022/04/28 06:20:44;;;;;;;17.55;7.95;;;7.20;99.90;;;;;;5070964;28;20037;-75
2022/04/28 06:23:11;;;;;;;13.40;6.70;;;7.30;99.90;;;;;;5071738;28;20024;-76
2022/04/28 06:25:36;;;;;;;15.77;6.60;;;7.40;99.90;;;;;;5071388;28;20135;-75
2022/04/28 06:28:04;;;;;;;15.95;6.20;;;7.50;99.90;;;;;;5050890;28;20053;-75
2022/04/28 06:30:32;;;;;;;15.60;6.60;;;7.60;99.90;;;;;;5051446;28;20029;-76
2022/04/28 06:32:58;;;;;;;12.52;6.25;;;7.70;99.90;;;;;;5050189;28;20056;-75
2022/04/28 06:35:23;;;;;;;15.02;6.40;;;7.80;99.90;;;;;;5033464;28;20474;-75
2022/04/28 06:37:49;;;;;;;14.20;6.40;;;8.00;99.90;;;;;;5050772;28;20060;-75
2022/04/28 06:40:15;;;;;;;12.70;5.75;;;8.10;99.90;;;;;;5051483;28;20021;-76
2022/04/28 06:42:43;;;;;;;16.85;6.40;;;8.20;99.90;;;;;;5051061;28;20021;-76
2022/04/28 06:45:11;;;;;;;12.25;5.05;;;8.30;99.90;;;;;;5050293;28;20032;-76
2022/04/28 06:47:36;;;;;;;13.10;7.00;;;8.40;99.90;;;;;;5042906;28;20393;-75
2022/04/28 06:50:02;;;;;;;18.92;5.80;;;8.50;99.90;;;;;;5030972;28;20034;-76
2022/04/28 06:52:28;;;;;;;11.45;4.53;;;8.50;99.90;;;;;;5031487;28;20025;-75
2022/04/28 06:54:53;;;;;;;13.98;4.72;;;8.60;99.90;;;;;;5032005;28;20096;-75
2022/04/28 06:57:19;;;;;;;14.45;4.82;;;8.70;99.90;;;;;;5051325;28;20067;-76
2022/04/28 06:59:44;;;;;;;15.55;4.20;;;8.70;99.90;;;;;;5050776;28;20049;-75
2022/04/28 07:02:10;;;;;;;15.73;4.47;;;8.80;99.90;;;;;;5049675;28;20040;-75
2022/04/28 07:04:36;;;;;;;12.75;4.30;;;8.80;99.90;;;;;;5051051;28;20048;-75
2022/04/28 07:07:01;;;;;;;13.25;5.13;;;8.90;99.90;;;;;;5050914;28;20017;-76
2022/04/28 07:09:27;;;;;;;11.73;4.03;;;9.00;99.90;;;;;;5053254;28;20035;-76
2022/04/28 07:11:52;;;;;;;13.65;4.03;;;9.10;99.90;;;;;;5041711;28;20028;-76
2022/04/28 07:14:18;;;;;;;9.00;3.30;;;9.20;99.90;;;;;;5035340;28;20029;-75
2022/04/28 07:16:44;;;;;;;12.32;2.70;;;9.30;99.90;;;;;;5041602;28;20061;-75
2022/04/28 07:19:09;;;;;;;16.42;2.85;;;9.30;99.90;;;;;;5035175;28;20444;-76
2022/04/28 07:21:35;;;;;;;13.60;3.53;;;9.30;99.90;;;;;;5034979;28;20493;-75
2022/04/28 07:24:01;;;;;;;11.55;2.58;;;9.40;99.90;;;;;;5042926;28;20094;-76
2022/04/28 07:26:29;;;;;;;11.13;2.53;;;9.50;99.90;;;;;;5054634;28;20049;-75
2022/04/28 07:28:55;;;;;;;9.95;2.50;;;9.50;99.90;;;;;;5053736;28;20060;-76
2022/04/28 07:31:20;;;;;;;14.57;2.70;;;9.60;99.90;;;;;;5054353;28;20104;-76
2022/04/28 07:33:46;;;;;;;8.43;2.15;;;9.70;99.90;;;;;;5054065;28;20104;-75
2022/04/28 07:36:12;;;;;;;11.52;2.97;;;9.70;99.90;;;;;;5054734;28;20112;-76
2022/04/28 07:38:38;;;;;;;8.93;1.85;;;9.70;99.90;;;;;;5054859;28;20025;-75
2022/04/28 07:41:04;;;;;;;7.10;2.28;;;9.80;99.90;;;;;;5054725;28;20021;-76
2022/04/28 07:43:30;;;;;;;7.60;2.00;;;9.80;99.90;;;;;;5054014;28;20058;-75
2022/04/28 07:45:55;;;;;;;12.82;2.72;;;10.00;99.90;;;;;;5052799;28;20121;-75
2022/04/28 07:48:21;;;;;;;8.82;2.10;;;10.10;99.90;;;;;;5054390;28;20416;-75
2022/04/28 07:50:47;;;;;;;11.85;2.80;;;10.20;99.90;;;;;;5036111;28;20033;-75
2022/04/28 07:53:13;;;;;;;12.10;3.80;;;10.20;98.90;;;;;;5054539;28;20033;-75
2022/04/28 07:55:38;;;;;;;8.32;2.58;;;10.30;99.40;;;;;;5054018;28;20472;-75
2022/04/28 07:58:04;;;;;;;11.23;2.55;;;10.40;99.40;;;;;;5054362;28;20122;-76
2022/04/28 08:00:29;;;;;;;13.70;2.25;;;10.50;99.50;;;;;;5050895;28;20052;-75
2022/04/28 08:02:55;;;;;;;10.60;2.22;;;10.70;99.50;;;;;;5038831;28;20037;-75
2022/04/28 08:05:20;;;;;;;8.40;2.08;;;10.80;99.20;;;;;;5053841;28;20040;-75
2022/04/28 08:07:46;;;;;;;8.85;2.33;;;10.90;98.60;;;;;;5054291;28;20374;-76
2022/04/28 08:10:12;;;;;;;10.88;2.33;;;10.90;98.10;;;;;;5053965;28;20025;-75
2022/04/28 08:12:38;;;;;;;9.13;1.98;;;11.00;98.30;;;;;;5053979;28;20024;-76
2022/04/28 08:15:04;;;;;;;10.35;1.80;;;11.10;98.10;;;;;;5052851;28;20037;-75
2022/04/28 08:17:30;;;;;;;7.72;1.83;;;11.20;97.60;;;;;;5052758;28;20036;-76
2022/04/28 08:19:55;;;;;;;11.48;2.05;;;11.20;97.00;;;;;;5052498;28;20049;-76
2022/04/28 08:22:21;;;;;;;7.13;1.95;;;11.10;95.80;;;;;;5053538;28;20017;-76
2022/04/28 08:24:47;;;;;;;8.73;1.90;;;11.00;95.80;;;;;;5052745;28;20090;-76
2022/04/28 08:27:12;;;;;;;8.43;2.25;;;11.00;95.80;;;;;;5053807;28;20028;-76
2022/04/28 08:29:38;;;;;;;10.18;1.80;;;11.10;95.40;;;;;;5053766;28;20039;-76
2022/04/28 08:32:04;;;;;;;12.68;2.38;;;11.10;95.30;;;;;;5053494;28;20139;-75
2022/04/28 08:34:29;;;;;;;8.32;2.53;;;11.10;95.10;;;;;;5053679;28;20025;-75
2022/04/28 08:36:55;;;;;;;10.52;2.17;;;11.30;95.40;;;;;;5053315;28;20051;-75
2022/04/28 08:39:21;;;;;;;10.90;2.25;;;11.30;95.50;;;;;;5052756;28;20437;-75
2022/04/28 08:41:49;;;;;;;9.25;2.60;;;11.40;95.30;;;;;;5052881;28;20106;-75
2022/04/28 08:44:25;;;;;;;12.90;2.78;;;11.50;95.20;;;;;;5053042;28;20392;-75
2022/04/28 08:46:53;;;;;;;12.45;2.42;;;11.50;94.50;;;;;;5052936;28;20029;-75
2022/04/28 08:49:22;;;;;;;7.18;1.95;;;11.60;94.70;;;;;;5053745;28;20025;-76
2022/04/28 08:51:50;;;;;;;8.38;2.10;;;11.70;94.50;;;;;;5053121;28;20028;-75
2022/04/28 08:54:16;;;;;;;11.00;2.15;;;11.70;94.20;;;;;;5052621;28;20473;-75
2022/04/28 08:56:42;;;;;;;8.77;2.78;;;11.80;93.90;;;;;;5052490;28;20028;-75
2022/04/28 08:59:08;;;;;;;19.20;2.58;;;11.90;93.70;;;;;;5053057;28;20028;-75
2022/04/28 09:01:36;;;;;;;7.95;2.10;;;11.90;93.90;;;;;;5053151;28;20416;-75
2022/04/28 09:04:04;;;;;;;7.32;1.98;;;12.10;93.80;;;;;;5052070;28;20123;-75
2022/04/28 09:06:34;;;;;;;7.35;1.73;;;12.20;93.40;;;;;;5053080;28;20045;-75
2022/04/28 09:09:04;;;;;;;12.45;2.17;;;12.30;93.40;;;;;;5052704;28;20032;-75
2022/04/28 09:11:32;;;;;;;9.05;2.17;;;12.30;92.20;;;;;;5052605;28;20049;-75
2022/04/28 09:14:11;;;;;;;6.63;1.83;;;12.20;92.00;;;;;;5052490;28;20021;-75
2022/04/28 09:16:45;;;;;;;7.90;2.80;;;12.30;91.80;;;;;;5051246;28;20045;-75
2022/04/28 09:19:17;;;;;;;7.80;1.98;;;12.30;91.80;;;;;;5033116;28;20025;-75
2022/04/28 09:21:43;;;;;;;5.73;2.10;;;12.30;91.40;;;;;;5032776;28;20045;-75
2022/04/28 09:24:10;;;;;;;7.90;1.90;;;12.40;91.50;;;;;;5032591;28;20271;-75
2022/04/28 09:26:37;;;;;;;7.45;2.10;;;12.40;91.60;;;;;;5036814;28;20037;-75
2022/04/28 09:29:09;;;;;;;8.18;2.08;;;12.50;91.40;;;;;;5052726;28;20043;-75
2022/04/28 09:31:36;;;;;;;12.18;2.72;;;12.60;91.60;;;;;;5050831;28;20021;-75
2022/04/28 09:34:13;;;;;;;8.43;2.35;;;12.90;91.30;;;;;;5052028;28;20021;-75
2022/04/28 09:36:40;;;;;;;8.18;2.63;;;12.90;90.90;;;;;;5050658;28;20756;-76
2022/04/28 09:39:09;;;;;;;10.00;2.72;;;12.80;90.90;;;;;;5052341;28;20043;-75
2022/04/28 09:44:20;;;;;;;8.10;2.38;;;12.70;91.00;;;;;;5052544;28;20075;-75
2022/04/28 09:46:46;;;;;;;6.55;2.17;;;12.70;91.10;;;;;;5050937;28;20064;-76
2022/04/28 09:49:17;;;;;;;10.52;2.78;;;12.80;91.40;;;;;;5051394;28;20052;-75
2022/04/28 09:51:44;;;;;;;15.65;3.38;;;13.00;91.10;;;;;;5051973;28;20496;-76
2022/04/28 09:54:12;;;;;;;10.27;2.92;;;13.00;90.00;;;;;;5052060;28;20063;-75
2022/04/28 09:56:39;;;;;;;8.50;2.55;;;13.00;90.10;;;;;;5051913;28;20025;-76
2022/04/28 09:59:08;;;;;;;8.23;2.58;;;13.10;89.80;;;;;;5051969;28;20025;-75
2022/04/28 10:01:34;;;;;;;11.63;2.88;;;13.20;88.30;;;;;;5050326;28;20040;-76
2022/04/28 10:04:00;;;;;;;15.32;4.07;;;13.20;87.80;;;;;;5051167;28;20029;-76
2022/04/28 10:06:28;;;;;;;10.82;3.28;;;13.10;87.10;;;;;;5051502;28;20543;-75
2022/04/28 10:08:55;;;;;;;9.25;2.75;;;13.10;86.60;;;;;;5051602;28;20028;-74
2022/04/28 10:11:23;;;;;;;9.90;2.63;;;13.20;87.60;;;;;;5051783;28;20021;-75
2022/04/28 10:13:50;;;;;;;11.02;2.63;;;13.40;88.10;;;;;;5051383;28;20071;-75
2022/04/28 10:16:18;;;;;;;10.05;2.10;;;13.60;88.50;;;;;;5050690;28;20025;-75
2022/04/28 10:19:01;;;;;;;13.23;2.60;;;13.70;87.20;;;;;;5050759;28;20051;-75
2022/04/28 10:21:38;;;;;;;6.53;2.65;;;13.80;86.30;;;;;;5051548;28;20061;-75
2022/04/28 10:32:57;;;;;;;6.25;2.95;;;13.80;85.50;;;;;;5044268;28;20565;-76
2022/04/28 10:35:43;;;;;;;6.95;2.20;;;13.90;83.80;;;;;;5031721;28;20080;-76
2022/04/28 10:38:13;;;;;;;7.28;2.60;;;13.90;83.10;;;;;;5031822;28;20033;-75
2022/04/28 10:40:42;;;;;;;7.32;2.70;;;13.80;81.90;;;;;;5031545;28;20026;-76
2022/04/28 10:43:25;;;;;;;9.35;2.72;;;13.80;81.80;;;;;;5030801;28;20028;-76
2022/04/28 10:45:53;;;;;;;12.00;3.58;;;13.80;81.60;;;;;;5050170;28;20377;-76
2022/04/28 10:48:48;;;;;;;7.70;2.80;;;13.70;80.60;;;;;;5051280;28;20013;-76
2022/04/28 10:51:15;;;;;;;8.13;3.10;;;13.70;81.30;;;;;;5047187;28;20040;-76
2022/04/28 10:54:01;;;;;;;9.10;3.40;;;13.80;81.60;;;;;;5050697;28;20073;-76
2022/04/28 10:56:54;;;;;;;12.32;3.17;;;13.80;80.80;;;;;;5051158;28;20060;-76
2022/04/28 10:59:25;;;;;;;11.25;3.60;;;13.80;81.40;;;;;;5050457;28;20021;-76
2022/04/28 11:01:51;;;;;;;8.30;2.15;;;14.00;81.20;;;;;;5050416;28;20037;-76
2022/04/28 11:04:21;;;;;;;7.88;2.67;;;14.10;82.10;;;;;;5051236;28;20090;-76
2022/04/28 11:06:57;;;;;;;9.15;2.42;;;14.30;80.70;;;;;;5050633;28;20454;-76
2022/04/28 11:09:38;;;;;;;9.02;3.08;;;14.50;80.50;;;;;;5050648;28;20059;-75
2022/04/28 11:12:12;;;;;;;7.25;1.95;;;14.60;79.90;;;;;;5051052;28;20032;-76
2022/04/28 11:14:46;;;;;;;8.55;2.88;;;14.80;80.20;;;;;;5050453;28;20529;-76
2022/04/28 11:17:13;;;;;;;7.72;2.70;;;14.80;77.50;;;;;;5050826;28;20025;-76
2022/04/28 11:19:40;;;;;;;5.97;3.53;;;14.80;77.80;;;;;;5050486;28;20484;-76
2022/04/28 11:22:06;;;;;;;10.52;3.47;;;14.80;77.50;;;;;;5051163;28;20670;-76
2022/04/28 11:24:32;;;;;;;10.63;3.55;;;14.80;77.80;;;;;;5050858;28;20434;-76
2022/04/28 11:27:01;;;;;;;8.82;3.38;;;14.90;77.40;;;;;;5050517;28;20029;-76
2022/04/28 11:29:31;;;;;;;9.73;3.65;;;15.00;78.00;;;;;;5049471;28;20426;-76
2022/04/28 11:32:01;;;;;;;8.80;3.20;;;14.90;74.90;;;;;;5050963;28;20442;-76
2022/04/28 11:34:29;;;;;;;8.75;4.00;;;14.90;75.70;;;;;;5050845;28;20104;-76
2022/04/28 11:36:55;;;;;;;11.13;3.53;;;15.00;77.40;;;;;;5050645;28;20048;-76
2022/04/28 11:39:24;;;;;;;13.95;3.92;;;15.20;77.10;;;;;;5050900;28;20481;-76
2022/04/28 11:41:52;;;;;;;10.60;3.08;;;15.30;76.10;;;;;;5048358;28;20041;-76
2022/04/28 11:44:19;;;;;;;14.75;3.60;;;15.30;74.60;;;;;;5049864;28;20033;-76
2022/04/28 11:46:44;;;;;;;7.88;3.15;;;15.30;74.80;;;;;;5050620;28;20063;-76
2022/04/28 11:49:10;;;;;;;15.05;3.53;;;15.30;75.60;;;;;;5050663;28;20404;-76
2022/04/28 11:51:37;;;;;;;7.53;3.20;;;15.30;75.80;;;;;;5050885;28;20112;-76
2022/04/28 11:54:04;;;;;;;7.55;2.63;;;15.30;75.10;;;;;;5050110;28;20508;-76
2022/04/28 11:56:35;;;;;;;19.13;3.83;;;15.40;75.70;;;;;;5053974;28;20036;-76
2022/04/28 11:59:04;;;;;;;10.98;3.30;;;15.40;75.50;;;;;;5053964;28;20029;-76
2022/04/28 12:01:33;;;;;;;22.77;3.33;;;15.40;74.30;;;;;;5054093;28;20481;-76
2022/04/28 12:04:00;;;;;;;8.65;2.78;;;15.40;74.20;;;;;;5053500;28;20051;-76
2022/04/28 12:06:27;;;;;;;9.95;4.53;;;15.50;74.40;;;;;;5054197;28;20040;-76
2022/04/28 12:08:57;;;;;;;7.53;3.70;;;15.60;73.60;;;;;;5053995;28;20056;-76
2022/04/28 12:14:25;;;;;;;6.43;2.80;;;15.80;73.60;;;;;;5054031;28;20043;-76
2022/04/28 12:20:00;;;;;;;12.60;4.07;;;16.10;71.30;;;;;;5052988;28;20068;-76
2022/04/28 12:22:39;;;;;;;9.30;3.72;;;15.90;69.90;;;;;;5053958;28;20033;-76
2022/04/28 12:25:07;;;;;;;9.57;3.15;;;15.80;70.00;;;;;;5053099;28;20067;-76
2022/04/28 12:27:53;;;;;;;8.57;3.38;;;15.80;70.30;;;;;;5053616;28;20036;-76
2022/04/28 12:30:20;;;;;;;13.07;4.15;;;15.80;70.40;;;;;;5053482;28;20021;-76
2022/04/28 12:32:54;;;;;;;10.52;4.30;;;15.80;71.50;;;;;;5052967;28;20028;-77
2022/04/28 12:35:26;;;;;;;9.80;4.35;;;16.00;71.70;;;;;;5053849;28;20025;-76
2022/04/28 12:38:00;;;;;;;11.90;4.15;;;16.10;70.70;;;;;;5053005;28;20032;-76
2022/04/28 12:40:27;;;;;;;8.27;3.60;;;16.10;71.80;;;;;;5053004;28;20033;-76
2022/04/28 12:42:55;;;;;;;8.75;3.25;;;16.40;72.40;;;;;;5053005;28;20052;-76
2022/04/28 12:45:42;;;;;;;11.95;4.15;;;16.60;71.90;;;;;;5053476;28;20392;-76
2022/04/28 12:48:27;;;;;;;14.73;3.90;;;16.70;69.60;;;;;;5052923;28;20032;-75
2022/04/28 12:51:10;;;;;;;9.57;3.65;;;16.70;70.30;;;;;;5053296;28;20029;-76
2022/04/28 12:53:36;;;;;;;8.57;3.67;;;16.90;70.60;;;;;;5053427;28;20082;-76
2022/04/28 12:56:07;;;;;;;7.53;2.88;;;17.00;69.20;;;;;;5050107;28;20512;-75
2022/04/28 12:58:42;;;;;;;9.05;4.03;;;17.10;68.80;;;;;;5052895;28;20100;-75
2022/04/28 13:01:09;;;;;;;8.77;3.55;;;17.00;67.00;;;;;;5052906;28;20026;-75
2022/04/28 13:03:35;;;;;;;8.98;3.90;;;16.80;67.20;;;;;;5052591;28;20053;-75
2022/04/28 13:06:01;;;;;;;8.38;3.28;;;16.70;66.70;;;;;;5052236;28;20041;-75
2022/04/28 13:08:26;;;;;;;8.10;3.58;;;16.70;67.20;;;;;;5052863;28;20025;-75
2022/04/28 13:10:53;;;;;;;7.95;3.03;;;16.70;66.60;;;;;;5051883;28;20068;-76
2022/04/28 13:13:19;;;;;;;9.50;2.92;;;16.70;66.50;;;;;;5052479;28;20492;-75
2022/04/28 13:15:45;;;;;;;8.48;3.30;;;16.70;67.30;;;;;;5052276;28;20545;-75
2022/04/28 13:18:10;;;;;;;8.82;3.42;;;16.80;66.60;;;;;;5052653;28;20104;-75
2022/04/28 13:20:36;;;;;;;11.32;3.42;;;16.80;65.60;;;;;;5052263;28;20106;-75
2022/04/28 13:23:02;;;;;;;9.43;3.35;;;16.80;66.30;;;;;;5052428;28;20027;-75